Time;durP1;ratioP1;P1;durP2;ratioP2;P2;SDS_P1;SDS_P2;PMS_P1;PMS_P2;Temp;Humidity;BMP_temperature;BMP_pressure;BME280_temperature;BME280_humidity;BME280_pressure;Samples;Min_cycle;Max_cycle;Signal;HPM_P1;HPM_P2
2023/10/30 00:01:27;;;;;;;0.00;0.00;;;9.50;99.90;;;;;;5017301;28;20034;-78
2023/10/30 00:03:53;;;;;;;0.00;0.00;;;9.40;99.90;;;;;;5017368;28;20084;-78
2023/10/30 00:06:18;;;;;;;0.00;0.00;;;9.50;99.90;;;;;;5016017;28;20472;-79
2023/10/30 00:08:44;;;;;;;0.35;0.35;;;9.30;99.90;;;;;;5017398;28;20042;-78
2023/10/30 00:11:09;;;;;;;0.00;0.00;;;9.20;99.90;;;;;;5017319;28;20091;-79
2023/10/30 00:13:35;;;;;;;0.00;0.00;;;9.20;99.90;;;;;;5017073;28;20053;-79
2023/10/30 00:16:01;;;;;;;0.00;0.00;;;9.20;99.90;;;;;;5017135;28;20500;-79
2023/10/30 00:18:28;;;;;;;0.00;0.00;;;10.40;1.00;;;;;;5017137;28;20411;-79
2023/10/30 00:20:53;;;;;;;1.27;0.52;;;9.20;1.00;;;;;;5017430;28;20046;-79
2023/10/30 00:23:19;;;;;;;0.00;0.00;;;9.10;1.00;;;;;;5017079;28;20057;-79
2023/10/30 00:25:45;;;;;;;0.98;0.80;;;9.10;1.00;;;;;;5016872;28;20041;-79
2023/10/30 00:28:10;;;;;;;0.05;0.05;;;9.00;1.00;;;;;;5016942;28;20104;-79
2023/10/30 00:30:36;;;;;;;0.00;0.00;;;9.00;1.00;;;;;;5016749;28;20038;-79
2023/10/30 00:33:01;;;;;;;0.30;0.15;;;8.90;1.00;;;;;;5017004;28;20046;-79
2023/10/30 00:35:27;;;;;;;0.00;0.00;;;8.90;1.00;;;;;;5016339;28;20454;-79
2023/10/30 00:37:53;;;;;;;2.63;0.43;;;8.80;1.00;;;;;;5016906;28;20042;-79
2023/10/30 00:40:19;;;;;;;0.10;0.10;;;8.80;55.20;;;;;;4999573;28;20037;-78
2023/10/30 00:42:45;;;;;;;0.00;0.00;;;9.00;40.00;;;;;;5017228;28;20050;-79
2023/10/30 00:45:10;;;;;;;0.00;0.00;;;9.00;1.00;;;;;;5019925;28;20049;-79
2023/10/30 00:47:38;;;;;;;0.00;0.00;;;9.00;1.00;;;;;;5020407;28;20472;-80
2023/10/30 00:50:06;;;;;;;0.00;0.00;;;8.90;1.00;;;;;;5018786;28;20042;-79
2023/10/30 00:52:31;;;;;;;0.00;0.00;;;9.00;1.00;;;;;;5017081;28;20038;-79
2023/10/30 00:54:57;;;;;;;0.00;0.00;;;8.90;99.90;;;;;;5016977;28;20472;-78
2023/10/30 00:57:22;;;;;;;0.00;0.00;;;8.90;99.90;;;;;;5016507;28;20042;-79
2023/10/30 00:59:48;;;;;;;0.00;0.00;;;8.80;99.90;;;;;;5016832;28;20050;-78
2023/10/30 01:02:14;;;;;;;0.10;0.10;;;8.70;1.00;;;;;;5016803;28;20121;-78
2023/10/30 01:04:39;;;;;;;0.00;0.00;;;8.70;1.00;;;;;;5016850;28;20446;-78
2023/10/30 01:07:05;;;;;;;0.00;0.00;;;8.60;1.00;;;;;;5016793;28;20046;-78
2023/10/30 01:09:30;;;;;;;0.00;0.00;;;8.60;59.80;;;;;;5016407;28;20038;-79
2023/10/30 01:11:56;;;;;;;0.00;0.00;;;8.50;99.90;;;;;;5016499;28;20057;-77
2023/10/30 01:14:22;;;;;;;0.00;0.00;;;8.50;99.90;;;;;;5016637;28;20392;-78
2023/10/30 01:16:49;;;;;;;0.00;0.00;;;8.60;99.90;;;;;;5016416;28;20410;-78
2023/10/30 01:19:15;;;;;;;0.65;0.45;;;8.60;99.90;;;;;;5007665;28;20042;-78
2023/10/30 01:21:41;;;;;;;0.32;0.28;;;8.60;99.90;;;;;;5011226;28;20095;-77
2023/10/30 01:24:08;;;;;;;0.00;0.00;;;8.60;99.90;;;;;;5017480;28;20466;-78
2023/10/30 01:26:33;;;;;;;0.15;0.08;;;8.60;99.90;;;;;;5015035;28;20053;-78
2023/10/30 01:28:59;;;;;;;0.57;0.13;;;8.60;99.90;;;;;;5016191;28;20514;-79
2023/10/30 01:31:27;;;;;;;0.00;0.00;;;8.60;99.90;;;;;;5015976;28;20042;-78
2023/10/30 01:33:56;;;;;;;0.08;0.08;;;8.60;99.90;;;;;;5016339;28;20050;-78
2023/10/30 01:36:23;;;;;;;0.00;0.00;;;8.50;99.90;;;;;;5016191;28;20126;-78
2023/10/30 01:38:49;;;;;;;0.00;0.00;;;8.50;99.90;;;;;;5016089;28;20088;-78
2023/10/30 01:41:14;;;;;;;0.10;0.08;;;8.50;99.90;;;;;;5015865;28;20492;-78
2023/10/30 01:43:40;;;;;;;1.20;0.63;;;8.50;99.90;;;;;;5016198;28;20050;-79
2023/10/30 01:46:06;;;;;;;0.45;0.40;;;8.50;99.90;;;;;;5014940;28;20107;-79
2023/10/30 01:48:33;;;;;;;0.00;0.00;;;8.60;99.90;;;;;;5016406;28;20046;-78
2023/10/30 01:51:00;;;;;;;1.00;1.00;;;8.60;99.90;;;;;;5016173;28;20568;-78
2023/10/30 01:53:27;;;;;;;0.22;0.20;;;8.60;99.90;;;;;;5016207;28;20045;-78
2023/10/30 01:55:55;;;;;;;7.82;0.60;;;8.60;99.90;;;;;;5014426;28;20038;-79
2023/10/30 01:58:22;;;;;;;0.00;0.00;;;8.60;93.50;;;;;;5015843;28;20385;-78
2023/10/30 02:00:48;;;;;;;0.40;0.40;;;8.50;67.50;;;;;;5015481;28;20500;-78
2023/10/30 02:03:14;;;;;;;4.70;0.28;;;8.50;99.90;;;;;;5015804;28;20079;-79
2023/10/30 02:05:40;;;;;;;0.65;0.65;;;8.50;99.90;;;;;;5015937;28;20100;-78
2023/10/30 02:08:07;;;;;;;1.75;0.55;;;8.50;99.90;;;;;;5016053;28;20042;-80
2023/10/30 02:10:33;;;;;;;0.00;0.00;;;8.60;99.90;;;;;;5015620;28;20048;-78
2023/10/30 02:13:03;;;;;;;0.00;0.00;;;8.70;77.10;;;;;;5015971;28;20042;-78
2023/10/30 02:15:28;;;;;;;0.00;0.00;;;8.70;1.00;;;;;;5015401;28;20077;-78
2023/10/30 02:17:54;;;;;;;4.78;0.17;;;8.80;1.00;;;;;;5016039;28;20107;-78
2023/10/30 02:20:19;;;;;;;21.98;0.70;;;8.80;1.00;;;;;;5015811;28;20377;-79
2023/10/30 02:22:45;;;;;;;1.38;0.40;;;8.80;1.00;;;;;;5016150;28;20038;-79
2023/10/30 02:25:11;;;;;;;0.00;0.00;;;8.80;1.00;;;;;;5015762;28;20099;-78
2023/10/30 02:27:36;;;;;;;0.00;0.00;;;8.80;1.00;;;;;;5015802;28;20137;-78
2023/10/30 02:30:02;;;;;;;0.00;0.00;;;8.80;1.00;;;;;;5015613;28;20041;-79
2023/10/30 02:32:28;;;;;;;0.68;0.57;;;8.70;1.00;;;;;;5016192;28;20085;-78
2023/10/30 02:34:53;;;;;;;5.72;0.80;;;8.70;1.00;;;;;;5015643;28;20034;-79
2023/10/30 02:37:19;;;;;;;0.00;0.00;;;8.70;1.00;;;;;;5016387;28;20038;-78
2023/10/30 02:39:45;;;;;;;0.75;0.75;;;8.80;1.00;;;;;;5015941;28;20125;-78
2023/10/30 02:42:10;;;;;;;0.00;0.00;;;8.90;1.00;;;;;;5015026;28;20053;-78
2023/10/30 02:44:36;;;;;;;12.57;1.13;;;8.90;99.90;;;;;;5015417;28;20042;-79
2023/10/30 02:47:02;;;;;;;0.00;0.00;;;8.80;99.90;;;;;;5015595;28;20073;-78
2023/10/30 02:49:28;;;;;;;0.00;0.00;;;8.90;1.00;;;;;;5015258;28;20084;-79
2023/10/30 02:51:53;;;;;;;0.03;0.03;;;8.90;1.00;;;;;;5015244;28;20034;-78
2023/10/30 02:54:19;;;;;;;0.00;0.00;;;8.90;1.00;;;;;;5014847;28;20042;-78
2023/10/30 02:56:45;;;;;;;6.28;1.13;;;8.70;1.00;;;;;;5014912;28;20045;-78
2023/10/30 02:59:11;;;;;;;0.75;0.57;;;8.80;1.00;;;;;;5014919;28;20045;-78
2023/10/30 03:01:37;;;;;;;0.43;0.43;;;8.80;1.00;;;;;;5015174;28;20038;-80
2023/10/30 03:04:02;;;;;;;0.00;0.00;;;8.80;1.00;;;;;;5015618;28;20046;-78
2023/10/30 03:06:28;;;;;;;0.00;0.00;;;8.80;1.00;;;;;;5014921;28;20061;-78
2023/10/30 03:08:54;;;;;;;0.10;0.10;;;8.90;1.00;;;;;;5015269;28;20050;-78
2023/10/30 03:11:20;;;;;;;4.00;0.15;;;8.90;1.00;;;;;;5015031;28;20057;-78
2023/10/30 03:13:45;;;;;;;0.17;0.17;;;8.90;1.00;;;;;;5014574;28;20442;-79
2023/10/30 03:16:11;;;;;;;0.00;0.00;;;8.80;99.90;;;;;;5014619;28;20408;-78
2023/10/30 03:18:37;;;;;;;0.00;0.00;;;8.80;1.00;;;;;;5014819;28;20038;-78
2023/10/30 03:21:04;;;;;;;0.00;0.00;;;8.80;1.00;;;;;;5014800;28;20045;-78
2023/10/30 03:23:29;;;;;;;0.00;0.00;;;8.90;1.00;;;;;;5014281;28;20514;-78
2023/10/30 03:25:55;;;;;;;0.98;0.40;;;8.80;1.00;;;;;;5014228;28;20034;-78
2023/10/30 03:28:20;;;;;;;0.20;0.20;;;8.80;1.00;;;;;;5014325;28;20108;-78
2023/10/30 03:30:46;;;;;;;0.73;0.47;;;8.70;1.00;;;;;;5014448;28;20045;-78
2023/10/30 03:33:11;;;;;;;1.00;0.73;;;8.70;1.00;;;;;;5014875;28;20070;-78
2023/10/30 03:35:41;;;;;;;9.55;0.85;;;8.70;1.00;;;;;;5014506;28;20038;-78
2023/10/30 03:38:07;;;;;;;0.03;0.03;;;8.70;1.00;;;;;;5006449;28;20042;-78
2023/10/30 03:40:32;;;;;;;1.05;0.95;;;8.70;1.00;;;;;;5014522;28;20053;-78
2023/10/30 03:42:58;;;;;;;0.98;0.22;;;8.70;1.00;;;;;;5015009;28;20042;-78
2023/10/30 03:45:23;;;;;;;0.00;0.00;;;8.70;1.00;;;;;;5017301;28;20147;-80
2023/10/30 03:47:49;;;;;;;0.20;0.20;;;8.70;8.00;;;;;;5016040;28;20447;-78
2023/10/30 03:50:16;;;;;;;0.70;0.35;;;8.80;1.00;;;;;;5014301;28;20049;-79
2023/10/30 03:52:41;;;;;;;0.00;0.00;;;8.80;1.00;;;;;;5015633;28;20045;-78
2023/10/30 03:55:07;;;;;;;0.00;0.00;;;8.80;1.00;;;;;;5014061;28;20056;-78
2023/10/30 03:57:33;;;;;;;0.05;0.05;;;8.70;1.00;;;;;;5014343;28;20045;-78
2023/10/30 03:59:59;;;;;;;0.08;0.08;;;8.60;1.00;;;;;;5014510;28;20046;-78
2023/10/30 04:02:24;;;;;;;0.00;0.00;;;8.70;37.20;;;;;;5013935;28;20041;-79
2023/10/30 04:04:50;;;;;;;0.13;0.08;;;8.60;24.70;;;;;;5013261;28;20131;-79
2023/10/30 04:07:17;;;;;;;0.00;0.00;;;8.70;29.50;;;;;;5012258;28;20046;-79
2023/10/30 04:09:42;;;;;;;0.00;0.00;;;8.60;53.00;;;;;;5013446;28;20408;-78
2023/10/30 04:12:08;;;;;;;1.00;0.95;;;8.60;99.90;;;;;;5014386;28;20046;-78
2023/10/30 04:14:33;;;;;;;0.00;0.00;;;8.70;99.90;;;;;;5014023;28;20038;-78
2023/10/30 04:17:02;;;;;;;0.08;0.08;;;8.70;99.90;;;;;;5013463;28;20065;-78
2023/10/30 04:19:28;;;;;;;0.63;0.63;;;8.70;99.90;;;;;;5015173;28;20045;-78
2023/10/30 04:21:54;;;;;;;0.10;0.10;;;8.70;99.90;;;;;;5017909;28;20400;-79
2023/10/30 04:24:19;;;;;;;0.03;0.03;;;8.80;70.80;;;;;;5020539;28;20038;-79
2023/10/30 04:26:45;;;;;;;0.03;0.03;;;8.80;1.00;;;;;;5020916;28;20049;-80
2023/10/30 04:29:10;;;;;;;1.10;0.65;;;8.80;1.00;;;;;;5020302;28;20042;-79
2023/10/30 04:31:36;;;;;;;0.20;0.20;;;8.80;1.00;;;;;;5020754;28;20049;-79
2023/10/30 04:34:02;;;;;;;0.00;0.00;;;8.70;1.00;;;;;;5021025;28;20385;-79
2023/10/30 04:36:27;;;;;;;0.38;0.38;;;8.80;1.00;;;;;;5020361;28;20511;-79
2023/10/30 04:38:53;;;;;;;0.73;0.10;;;8.80;1.00;;;;;;5020282;28;20038;-79
2023/10/30 04:41:18;;;;;;;5.57;0.65;;;8.90;1.00;;;;;;5020007;28;20052;-79
2023/10/30 04:43:44;;;;;;;0.22;0.22;;;8.90;1.00;;;;;;5020324;28;20057;-79
2023/10/30 04:46:09;;;;;;;1.45;1.00;;;8.90;1.00;;;;;;5020060;28;20483;-79
2023/10/30 04:48:35;;;;;;;0.22;0.10;;;8.80;1.00;;;;;;5019842;28;20046;-79
2023/10/30 04:51:01;;;;;;;1.45;0.70;;;8.80;1.00;;;;;;5019942;28;20046;-79
2023/10/30 04:53:29;;;;;;;0.63;0.63;;;8.80;1.00;;;;;;5019982;28;20057;-79
2023/10/30 04:55:59;;;;;;;0.00;0.00;;;8.80;1.00;;;;;;5018628;28;20046;-79
2023/10/30 04:58:25;;;;;;;0.00;0.00;;;8.70;1.00;;;;;;5019386;28;20053;-79
2023/10/30 05:00:50;;;;;;;0.10;0.10;;;8.70;2.20;;;;;;5019502;28;20049;-78
2023/10/30 05:03:16;;;;;;;0.15;0.13;;;8.60;19.30;;;;;;5018654;28;20038;-79
2023/10/30 05:05:41;;;;;;;0.10;0.10;;;8.60;61.50;;;;;;5019204;28;20096;-79
2023/10/30 05:08:07;;;;;;;0.35;0.32;;;8.70;75.50;;;;;;5019573;28;20506;-80
2023/10/30 05:10:32;;;;;;;0.50;0.30;;;8.70;49.70;;;;;;5019076;28;20504;-80
2023/10/30 05:12:58;;;;;;;1.30;0.52;;;8.60;63.50;;;;;;5019672;28;20045;-78
2023/10/30 05:15:24;;;;;;;0.00;0.00;;;8.60;32.70;;;;;;5019036;28;20129;-79
2023/10/30 05:17:50;;;;;;;1.95;1.85;;;8.60;56.20;;;;;;5016840;28;20041;-79
2023/10/30 05:20:15;;;;;;;0.38;0.22;;;8.50;99.90;;;;;;5016664;28;20042;-78
2023/10/30 05:22:44;;;;;;;0.00;0.00;;;8.50;98.60;;;;;;5016655;28;20040;-79
2023/10/30 05:25:09;;;;;;;0.00;0.00;;;8.50;99.90;;;;;;5016741;28;20530;-79
2023/10/30 05:27:35;;;;;;;0.20;0.20;;;8.50;99.90;;;;;;5017124;28;20081;-79
2023/10/30 05:30:00;;;;;;;0.00;0.00;;;8.50;99.90;;;;;;5016481;28;20480;-79
2023/10/30 05:32:26;;;;;;;0.10;0.10;;;8.40;99.90;;;;;;5016849;28;20049;-78
2023/10/30 05:34:52;;;;;;;0.20;0.20;;;8.50;99.90;;;;;;5018925;28;20049;-80
2023/10/30 05:37:19;;;;;;;0.00;0.00;;;8.40;99.90;;;;;;5019139;28;20042;-79
2023/10/30 05:39:45;;;;;;;0.45;0.32;;;8.40;99.90;;;;;;5019415;28;20053;-79
2023/10/30 05:42:11;;;;;;;0.00;0.00;;;8.40;99.90;;;;;;5019697;28;20034;-79
2023/10/30 05:44:36;;;;;;;0.38;0.32;;;8.30;99.90;;;;;;5019708;28;20500;-80
2023/10/30 05:47:02;;;;;;;0.00;0.00;;;8.30;99.90;;;;;;5019121;28;20049;-80
2023/10/30 05:49:28;;;;;;;0.00;0.00;;;8.20;99.90;;;;;;5019339;28;20038;-79
2023/10/30 05:51:55;;;;;;;0.00;0.00;;;8.20;99.90;;;;;;5019094;28;20057;-79
2023/10/30 05:54:21;;;;;;;0.20;0.13;;;8.20;99.90;;;;;;5019517;28;20033;-79
2023/10/30 05:56:48;;;;;;;0.00;0.00;;;8.10;99.90;;;;;;5018955;28;20050;-80
2023/10/30 05:59:13;;;;;;;0.55;0.52;;;8.10;1.00;;;;;;5019027;28;20056;-79
2023/10/30 06:01:39;;;;;;;0.10;0.10;;;8.10;1.00;;;;;;5018732;28;20042;-79
2023/10/30 06:04:05;;;;;;;0.25;0.25;;;8.10;1.00;;;;;;5018765;28;20042;-79
2023/10/30 06:06:30;;;;;;;0.30;0.30;;;8.10;1.00;;;;;;5017997;28;20037;-79
2023/10/30 06:08:56;;;;;;;1.20;0.65;;;8.20;1.00;;;;;;5018716;28;20056;-79
2023/10/30 06:11:22;;;;;;;0.00;0.00;;;8.10;1.00;;;;;;5018580;28;20116;-79
2023/10/30 06:13:48;;;;;;;0.00;0.00;;;8.10;8.40;;;;;;5019029;28;20411;-79
2023/10/30 06:16:20;;;;;;;0.00;0.00;;;8.20;65.70;;;;;;5018576;28;20045;-80
2023/10/30 06:18:46;;;;;;;13.63;2.17;;;8.20;44.10;;;;;;5020722;28;20102;-80
2023/10/30 06:21:15;;;;;;;0.57;0.55;;;8.20;34.30;;;;;;5020792;28;20049;-80
2023/10/30 06:23:41;;;;;;;0.00;0.00;;;8.20;67.50;;;;;;5020759;28;20044;-79
2023/10/30 06:26:08;;;;;;;0.40;0.40;;;8.30;99.90;;;;;;5017897;28;20077;-79
2023/10/30 06:28:34;;;;;;;0.60;0.47;;;8.30;99.90;;;;;;5015973;28;20048;-79
2023/10/30 06:31:00;;;;;;;0.00;0.00;;;8.30;99.90;;;;;;5015336;28;20117;-79
2023/10/30 06:33:26;;;;;;;0.00;0.00;;;8.40;99.90;;;;;;5015791;28;20049;-79
2023/10/30 06:36:00;;;;;;;0.13;0.13;;;8.40;99.90;;;;;;5018297;28;20040;-79
2023/10/30 06:38:26;;;;;;;0.00;0.00;;;8.40;99.90;;;;;;5017707;28;20042;-79
2023/10/30 06:40:52;;;;;;;0.20;0.20;;;8.40;99.90;;;;;;5018102;28;20527;-82
2023/10/30 06:43:18;;;;;;;0.00;0.00;;;8.40;99.90;;;;;;5018119;28;20046;-80
2023/10/30 06:45:43;;;;;;;3.50;1.17;;;8.50;99.90;;;;;;5018932;28;20095;-80
2023/10/30 06:48:09;;;;;;;0.00;0.00;;;8.60;99.90;;;;;;5018617;28;20445;-79
2023/10/30 06:50:34;;;;;;;0.00;0.00;;;8.60;99.90;;;;;;5017670;28;20054;-80
2023/10/30 06:53:00;;;;;;;0.28;0.28;;;8.70;99.90;;;;;;5018337;28;20120;-79
2023/10/30 06:55:25;;;;;;;2.10;0.60;;;8.80;99.90;;;;;;5017155;28;20403;-79
2023/10/30 06:57:51;;;;;;;0.00;0.00;;;8.90;99.90;;;;;;5017864;28;20046;-79
2023/10/30 07:00:19;;;;;;;0.00;0.00;;;9.00;99.20;;;;;;5017947;28;20045;-79
2023/10/30 07:02:44;;;;;;;0.00;0.00;;;9.00;99.90;;;;;;5017639;28;20049;-79
2023/10/30 07:05:10;;;;;;;13.90;0.43;;;9.20;91.20;;;;;;5017121;28;20077;-79
2023/10/30 07:07:36;;;;;;;4.18;0.90;;;9.40;1.00;;;;;;5017980;28;20038;-80
2023/10/30 07:10:02;;;;;;;0.00;0.00;;;9.60;1.00;;;;;;5017793;28;20060;-81
2023/10/30 07:12:28;;;;;;;0.05;0.03;;;9.80;99.90;;;;;;5015986;28;20451;-80
2023/10/30 07:14:54;;;;;;;0.60;0.15;;;9.90;99.90;;;;;;5017393;28;20041;-79
2023/10/30 07:17:20;;;;;;;0.00;0.00;;;10.00;99.90;;;;;;5016534;28;20042;-80
2023/10/30 07:19:46;;;;;;;17.27;0.55;;;10.20;1.00;;;;;;5017129;28;20034;-80
2023/10/30 07:22:12;;;;;;;0.00;0.00;;;10.40;99.90;;;;;;5017086;28;20484;-79
2023/10/30 07:24:38;;;;;;;0.75;0.55;;;10.50;99.90;;;;;;5016462;28;20093;-79
2023/10/30 07:27:05;;;;;;;0.10;0.10;;;10.60;99.90;;;;;;5015257;28;20092;-80
2023/10/30 07:29:31;;;;;;;0.00;0.00;;;10.70;21.90;;;;;;5014696;28;20058;-79
2023/10/30 07:31:57;;;;;;;0.30;0.30;;;11.50;1.00;;;;;;5014044;28;20046;-79
2023/10/30 07:34:22;;;;;;;0.03;0.03;;;10.70;1.00;;;;;;5014650;28;20095;-79
2023/10/30 07:36:48;;;;;;;0.10;0.10;;;10.80;1.00;;;;;;5014092;28;20117;-79
2023/10/30 07:39:14;;;;;;;0.00;0.00;;;11.00;99.90;;;;;;5015677;28;20120;-80
2023/10/30 07:41:39;;;;;;;0.08;0.08;;;10.90;76.70;;;;;;5015107;28;20130;-80
2023/10/30 07:44:07;;;;;;;0.00;0.00;;;10.90;11.70;;;;;;5013798;28;20072;-80
2023/10/30 07:46:33;;;;;;;2.10;1.27;;;10.80;1.00;;;;;;5014851;28;20042;-80
2023/10/30 07:49:06;;;;;;;1.33;0.65;;;10.70;1.00;;;;;;5013036;28;20056;-80
2023/10/30 07:51:31;;;;;;;0.70;0.50;;;10.70;99.90;;;;;;5013282;28;20046;-80
2023/10/30 07:53:58;;;;;;;0.00;0.00;;;10.60;99.90;;;;;;5014748;28;20084;-79
2023/10/30 07:56:23;;;;;;;0.45;0.30;;;10.60;99.90;;;;;;5016415;28;20088;-80
2023/10/30 07:58:50;;;;;;;0.20;0.20;;;10.50;99.90;;;;;;5018588;28;20046;-80
2023/10/30 08:01:19;;;;;;;0.30;0.30;;;10.70;99.90;;;;;;5017532;28;20574;-79
2023/10/30 08:03:45;;;;;;;0.00;0.00;;;10.60;99.90;;;;;;5018404;28;20467;-79
2023/10/30 08:06:12;;;;;;;0.00;0.00;;;10.60;99.90;;;;;;5018116;28;20500;-79
2023/10/30 08:08:38;;;;;;;14.02;1.88;;;10.60;99.90;;;;;;5017956;28;20055;-79
2023/10/30 08:11:04;;;;;;;0.00;0.00;;;10.60;99.90;;;;;;5018138;28;20042;-79
2023/10/30 08:13:31;;;;;;;0.32;0.08;;;12.00;99.90;;;;;;5019267;28;20567;-79
2023/10/30 08:15:56;;;;;;;0.57;0.45;;;10.70;99.90;;;;;;5017980;28;20133;-79
2023/10/30 08:18:22;;;;;;;0.00;0.00;;;10.80;99.90;;;;;;5017743;28;20069;-80
2023/10/30 08:20:47;;;;;;;0.63;0.45;;;10.70;99.90;;;;;;5018651;28;20042;-79
2023/10/30 08:23:13;;;;;;;0.00;0.00;;;10.80;1.00;;;;;;5018250;28;20096;-80
2023/10/30 08:25:39;;;;;;;0.68;0.68;;;11.10;99.90;;;;;;5018248;28;20376;-80
2023/10/30 08:28:04;;;;;;;0.32;0.32;;;10.90;99.90;;;;;;5018622;28;20127;-79
2023/10/30 08:30:30;;;;;;;0.20;0.17;;;11.00;99.90;;;;;;5018401;28;20053;-80
2023/10/30 08:32:56;;;;;;;0.90;0.82;;;11.00;99.90;;;;;;5017917;28;20416;-79
2023/10/30 08:35:22;;;;;;;0.20;0.20;;;11.80;99.90;;;;;;5018730;28;20085;-80
2023/10/30 08:37:48;;;;;;;0.08;0.03;;;11.10;99.90;;;;;;5019135;28;20038;-79
2023/10/30 08:40:14;;;;;;;0.00;0.00;;;11.10;99.90;;;;;;5021059;28;20045;-80
2023/10/30 08:42:39;;;;;;;0.10;0.10;;;11.20;99.90;;;;;;5018882;28;20118;-80
2023/10/30 08:45:07;;;;;;;1.55;1.27;;;11.20;83.50;;;;;;5018804;28;20480;-80
2023/10/30 08:47:32;;;;;;;0.10;0.10;;;11.30;69.60;;;;;;5018669;28;20044;-80
2023/10/30 08:49:58;;;;;;;0.60;0.30;;;11.30;27.00;;;;;;5019814;28;20099;-79
2023/10/30 08:52:24;;;;;;;0.00;0.00;;;11.50;1.00;;;;;;5019228;28;20042;-80
2023/10/30 08:54:49;;;;;;;1.15;0.95;;;11.60;1.00;;;;;;5018795;28;20033;-80
2023/10/30 08:57:19;;;;;;;0.15;0.15;;;11.70;99.90;;;;;;5018746;28;20049;-78
2023/10/30 08:59:45;;;;;;;0.00;0.00;;;11.70;99.90;;;;;;5016819;28;20056;-78
2023/10/30 09:02:11;;;;;;;3.15;1.02;;;11.70;99.90;;;;;;5018030;28;20103;-78
2023/10/30 09:04:37;;;;;;;0.30;0.22;;;11.90;23.20;;;;;;5016285;28;20439;-78
2023/10/30 09:07:03;;;;;;;0.63;0.63;;;11.70;1.00;;;;;;5016764;28;20121;-78
2023/10/30 09:09:28;;;;;;;0.17;0.17;;;11.70;99.90;;;;;;5016434;28;20480;-78
2023/10/30 09:11:54;;;;;;;0.10;0.10;;;11.70;99.90;;;;;;5015991;28;20098;-78
2023/10/30 09:14:20;;;;;;;0.73;0.20;;;11.70;83.50;;;;;;4999390;28;20042;-78
2023/10/30 09:16:45;;;;;;;2.42;0.60;;;11.90;99.90;;;;;;5016401;28;20042;-78
2023/10/30 09:19:11;;;;;;;0.95;0.55;;;12.00;99.90;;;;;;5018042;28;20376;-79
2023/10/30 09:21:36;;;;;;;1.00;0.90;;;12.00;99.90;;;;;;5018529;28;20045;-79
2023/10/30 09:24:02;;;;;;;1.00;0.43;;;12.20;99.90;;;;;;5018165;28;20400;-79
2023/10/30 09:26:28;;;;;;;4.85;0.90;;;12.30;99.90;;;;;;5017292;28;20046;-78
2023/10/30 09:28:54;;;;;;;0.32;0.30;;;12.30;99.90;;;;;;5018508;28;20044;-79
2023/10/30 09:31:20;;;;;;;0.03;0.03;;;12.40;99.90;;;;;;5018288;28;20172;-78
2023/10/30 09:33:47;;;;;;;1.48;0.55;;;12.60;1.00;;;;;;5016988;28;20084;-78
2023/10/30 09:36:13;;;;;;;2.13;1.38;;;12.70;1.00;;;;;;5017501;28;20042;-79
2023/10/30 09:38:38;;;;;;;0.03;0.03;;;12.80;99.90;;;;;;5018404;28;20510;-79
2023/10/30 09:41:05;;;;;;;0.00;0.00;;;13.00;99.90;;;;;;5017275;28;20038;-79
2023/10/30 09:43:33;;;;;;;0.38;0.32;;;13.40;99.90;;;;;;5016680;28;20038;-78
2023/10/30 09:46:01;;;;;;;0.45;0.43;;;13.30;99.90;;;;;;5016455;28;20042;-78
2023/10/30 09:48:28;;;;;;;0.65;0.38;;;13.40;78.20;;;;;;5015818;28;20045;-78
2023/10/30 09:50:55;;;;;;;0.22;0.22;;;13.40;99.90;;;;;;5016697;28;20408;-79
2023/10/30 09:53:20;;;;;;;1.25;0.63;;;13.30;92.00;;;;;;5016669;28;20121;-79
2023/10/30 09:55:48;;;;;;;1.02;0.22;;;13.30;1.00;;;;;;5015269;28;20476;-79
2023/10/30 09:58:15;;;;;;;0.20;0.20;;;13.20;1.00;;;;;;5015906;28;20042;-79
2023/10/30 10:00:44;;;;;;;3.00;0.85;;;13.20;1.00;;;;;;5016906;28;20046;-79
2023/10/30 10:03:10;;;;;;;0.00;0.00;;;13.10;1.00;;;;;;5016575;28;20121;-79
2023/10/30 10:05:36;;;;;;;0.00;0.00;;;13.10;1.00;;;;;;5016290;28;20092;-79
2023/10/30 10:08:01;;;;;;;0.20;0.13;;;13.10;1.00;;;;;;5016101;28;20081;-79
2023/10/30 10:10:27;;;;;;;0.00;0.00;;;13.20;3.10;;;;;;5015783;28;20038;-79
2023/10/30 10:12:55;;;;;;;0.88;0.73;;;13.10;1.00;;;;;;5015441;28;20069;-79
2023/10/30 10:15:21;;;;;;;2.03;1.05;;;13.10;32.80;;;;;;5015601;28;20139;-79
2023/10/30 10:17:48;;;;;;;0.55;0.43;;;13.40;24.10;;;;;;5014000;28;20496;-79
2023/10/30 10:20:14;;;;;;;0.08;0.03;;;13.00;99.90;;;;;;5015454;28;20049;-79
2023/10/30 10:22:40;;;;;;;0.00;0.00;;;13.00;99.90;;;;;;5016285;28;20038;-79
2023/10/30 10:25:18;;;;;;;3.47;2.42;;;13.10;80.00;;;;;;5015708;28;20044;-80
2023/10/30 10:27:44;;;;;;;0.00;0.00;;;13.00;1.00;;;;;;5008392;28;20550;-79
2023/10/30 10:30:10;;;;;;;0.00;0.00;;;13.00;1.00;;;;;;5014759;28;20061;-79
2023/10/30 10:32:37;;;;;;;0.43;0.43;;;13.00;59.20;;;;;;5015208;28;20045;-79
2023/10/30 10:35:05;;;;;;;0.55;0.55;;;13.00;99.90;;;;;;5015116;28;20140;-79
2023/10/30 10:37:32;;;;;;;2.40;1.25;;;13.10;82.40;;;;;;5014078;28;20092;-79
2023/10/30 10:39:59;;;;;;;1.13;0.65;;;13.40;9.00;;;;;;5013879;28;20415;-78
2023/10/30 10:42:26;;;;;;;1.00;0.40;;;13.50;69.10;;;;;;5014727;28;20111;-79
2023/10/30 10:44:54;;;;;;;0.32;0.22;;;13.60;1.00;;;;;;5006132;28;20049;-78
2023/10/30 10:47:21;;;;;;;0.00;0.00;;;13.60;1.00;;;;;;5014431;28;20045;-79
2023/10/30 10:49:47;;;;;;;0.75;0.55;;;13.70;1.00;;;;;;5014158;28;20038;-78
2023/10/30 10:52:15;;;;;;;1.15;0.82;;;13.80;1.00;;;;;;5014510;28;20476;-78
2023/10/30 10:54:53;;;;;;;0.20;0.17;;;13.90;1.00;;;;;;5013922;28;20041;-78
2023/10/30 10:57:20;;;;;;;0.22;0.22;;;14.00;1.00;;;;;;5013978;28;20498;-78
2023/10/30 10:59:50;;;;;;;1.65;0.52;;;14.10;1.00;;;;;;5017666;28;20450;-80
2023/10/30 11:02:22;;;;;;;0.43;0.25;;;14.10;1.00;;;;;;5019710;28;20068;-80
2023/10/30 11:04:50;;;;;;;0.28;0.28;;;14.30;99.90;;;;;;5018275;28;20552;-79
2023/10/30 11:07:25;;;;;;;0.03;0.03;;;14.30;99.90;;;;;;5016474;28;20068;-79
2023/10/30 11:09:55;;;;;;;0.00;0.00;;;14.30;99.90;;;;;;5013268;28;20058;-78
2023/10/30 11:12:32;;;;;;;0.00;0.00;;;14.30;99.90;;;;;;5005432;28;20046;-79
2023/10/30 11:15:32;;;;;;;0.03;0.03;;;14.30;99.90;;;;;;5014117;28;20139;-79
2023/10/30 11:18:21;;;;;;;0.10;0.10;;;14.40;99.90;;;;;;5009435;28;20527;-79
2023/10/30 11:20:52;;;;;;;0.00;0.00;;;14.50;99.90;;;;;;5008890;28;20069;-78
2023/10/30 11:23:44;;;;;;;0.00;0.00;;;14.70;99.90;;;;;;5014423;28;20102;-79
2023/10/30 11:26:44;;;;;;;0.25;0.10;;;14.90;99.90;;;;;;5012837;28;20057;-79
2023/10/30 11:29:21;;;;;;;0.00;0.00;;;14.80;99.90;;;;;;5014386;28;20037;-79
2023/10/30 11:32:14;;;;;;;0.00;0.00;;;14.60;99.90;;;;;;5010329;28;20053;-79
2023/10/30 11:34:43;;;;;;;0.20;0.20;;;14.40;99.90;;;;;;5016059;28;20061;-79
2023/10/30 11:37:11;;;;;;;0.50;0.50;;;14.50;99.90;;;;;;5015728;28;20121;-78
2023/10/30 11:39:39;;;;;;;0.20;0.20;;;14.60;99.90;;;;;;5016050;28;20050;-79
2023/10/30 11:42:34;;;;;;;0.03;0.03;;;14.80;99.90;;;;;;5016473;28;20042;-79
2023/10/30 11:45:23;;;;;;;0.43;0.40;;;15.00;99.90;;;;;;5015046;28;20056;-79
2023/10/30 11:48:25;;;;;;;3.63;0.73;;;15.20;99.90;;;;;;5016121;28;20088;-79
2023/10/30 11:50:54;;;;;;;0.00;0.00;;;15.40;99.90;;;;;;5015925;28;20049;-79
2023/10/30 11:53:21;;;;;;;0.85;0.45;;;15.50;99.90;;;;;;5016766;28;20046;-79
2023/10/30 11:55:50;;;;;;;0.75;0.70;;;15.40;99.90;;;;;;5015460;28;20060;-79
2023/10/30 11:58:18;;;;;;;0.03;0.03;;;15.30;99.90;;;;;;5016270;28;20046;-79
2023/10/30 12:00:44;;;;;;;2.17;0.60;;;15.10;99.90;;;;;;5016313;28;20038;-79
2023/10/30 12:03:11;;;;;;;0.38;0.30;;;14.90;99.90;;;;;;5015756;28;20088;-79
2023/10/30 12:05:37;;;;;;;0.00;0.00;;;14.80;99.90;;;;;;5016382;28;20069;-79
2023/10/30 12:08:04;;;;;;;0.40;0.32;;;14.70;99.90;;;;;;5015639;28;20136;-79
2023/10/30 12:10:31;;;;;;;0.10;0.10;;;14.70;99.90;;;;;;5016112;28;20109;-79
2023/10/30 12:12:56;;;;;;;2.95;1.27;;;14.70;99.90;;;;;;5016491;28;20480;-79
2023/10/30 12:15:22;;;;;;;0.00;0.00;;;14.60;99.90;;;;;;5015207;28;20137;-79
2023/10/30 12:17:47;;;;;;;2.17;1.27;;;14.50;99.90;;;;;;5013139;28;20500;-78
2023/10/30 12:20:14;;;;;;;0.55;0.43;;;14.50;99.90;;;;;;5012938;28;20045;-79
2023/10/30 12:22:42;;;;;;;1.35;0.95;;;14.50;99.90;;;;;;5012875;28;20508;-78
2023/10/30 12:25:14;;;;;;;0.28;0.28;;;14.50;99.90;;;;;;5013694;28;20042;-79
2023/10/30 12:27:40;;;;;;;0.85;0.32;;;14.50;99.90;;;;;;5013285;28;20483;-78
2023/10/30 12:30:24;;;;;;;0.00;0.00;;;14.60;99.90;;;;;;5013571;28;20057;-79
2023/10/30 12:32:57;;;;;;;0.00;0.00;;;14.70;99.90;;;;;;5006620;28;20069;-78
2023/10/30 12:35:23;;;;;;;2.00;0.30;;;14.60;99.90;;;;;;5013041;28;20038;-78
2023/10/30 12:37:48;;;;;;;3.60;0.70;;;14.60;99.90;;;;;;5013007;28;20117;-78
2023/10/30 12:40:14;;;;;;;3.00;1.80;;;14.60;99.90;;;;;;5014167;28;20065;-79
2023/10/30 12:42:47;;;;;;;0.10;0.10;;;14.90;99.90;;;;;;5015728;28;20137;-78
2023/10/30 12:45:14;;;;;;;3.67;1.88;;;14.60;99.90;;;;;;5015799;28;20045;-78
2023/10/30 12:47:41;;;;;;;0.35;0.20;;;14.50;99.90;;;;;;5015203;28;20095;-79
2023/10/30 12:50:08;;;;;;;0.60;0.47;;;14.50;99.90;;;;;;5016481;28;20096;-79
2023/10/30 12:52:35;;;;;;;4.97;1.23;;;14.60;99.90;;;;;;5016096;28;20056;-78
2023/10/30 12:55:00;;;;;;;2.33;0.88;;;14.60;99.90;;;;;;5007744;28;20072;-78